sensor_id;sensor_type;location;lat;lon;timestamp;pressure;altitude;pressure_sealevel;temperature;humidity
39897;BME280;25567;48.276;14.242;2022-12-18T00:02:07;99803.66;;;-7.37;100.00
39897;BME280;25567;48.276;14.242;2022-12-18T00:04:34;99803.72;;;-7.54;100.00
39897;BME280;25567;48.276;14.242;2022-12-18T00:07:01;99813.03;;;-7.51;100.00
39897;BME280;25567;48.276;14.242;2022-12-18T00:09:27;99812.84;;;-7.48;100.00
39897;BME280;25567;48.276;14.242;2022-12-18T00:12:05;99811.53;;;-7.56;100.00
39897;BME280;25567;48.276;14.242;2022-12-18T00:14:41;99807.31;;;-7.41;100.00
39897;BME280;25567;48.276;14.242;2022-12-18T00:17:11;99814.31;;;-7.27;100.00
39897;BME280;25567;48.276;14.242;2022-12-18T00:19:41;99811.75;;;-7.11;100.00
39897;BME280;25567;48.276;14.242;2022-12-18T00:22:08;99811.81;;;-7.12;100.00
39897;BME280;25567;48.276;14.242;2022-12-18T00:24:34;99816.38;;;-7.17;100.00
39897;BME280;25567;48.276;14.242;2022-12-18T00:27:01;99819.22;;;-7.22;100.00
39897;BME280;25567;48.276;14.242;2022-12-18T00:29:28;99812.91;;;-7.16;100.00
39897;BME280;25567;48.276;14.242;2022-12-18T00:31:54;99820.63;;;-7.16;100.00
39897;BME280;25567;48.276;14.242;2022-12-18T00:34:21;99818.16;;;-7.18;100.00
39897;BME280;25567;48.276;14.242;2022-12-18T00:36:48;99821.72;;;-6.89;100.00
39897;BME280;25567;48.276;14.242;2022-12-18T00:39:15;99830.72;;;-7.12;100.00
39897;BME280;25567;48.276;14.242;2022-12-18T00:41:41;99829.97;;;-6.98;100.00
39897;BME280;25567;48.276;14.242;2022-12-18T00:44:23;99829.97;;;-6.98;100.00
39897;BME280;25567;48.276;14.242;2022-12-18T00:46:50;99827.25;;;-6.79;100.00
39897;BME280;25567;48.276;14.242;2022-12-18T00:49:18;99842.38;;;-7.05;100.00
39897;BME280;25567;48.276;14.242;2022-12-18T00:51:46;99834.63;;;-6.89;100.00
39897;BME280;25567;48.276;14.242;2022-12-18T00:54:16;99841.78;;;-6.78;100.00
39897;BME280;25567;48.276;14.242;2022-12-18T00:56:42;99850.47;;;-6.79;100.00
39897;BME280;25567;48.276;14.242;2022-12-18T00:59:17;99856.28;;;-6.75;100.00
39897;BME280;25567;48.276;14.242;2022-12-18T01:01:45;99858.44;;;-6.67;100.00
39897;BME280;25567;48.276;14.242;2022-12-18T01:04:12;99860.03;;;-6.65;100.00
39897;BME280;25567;48.276;14.242;2022-12-18T01:06:39;99858.78;;;-6.74;100.00
39897;BME280;25567;48.276;14.242;2022-12-18T01:09:06;99858.78;;;-6.74;100.00
39897;BME280;25567;48.276;14.242;2022-12-18T01:11:33;99861.44;;;-6.75;100.00
39897;BME280;25567;48.276;14.242;2022-12-18T01:14:00;99856.63;;;-6.97;100.00
39897;BME280;25567;48.276;14.242;2022-12-18T01:16:27;99871.34;;;-6.99;100.00
39897;BME280;25567;48.276;14.242;2022-12-18T01:18:54;99874.84;;;-6.84;100.00
39897;BME280;25567;48.276;14.242;2022-12-18T01:21:22;99877.09;;;-6.94;100.00
39897;BME280;25567;48.276;14.242;2022-12-18T01:23:52;99873.44;;;-6.90;100.00
39897;BME280;25567;48.276;14.242;2022-12-18T01:26:19;99884.56;;;-6.90;100.00
39897;BME280;25567;48.276;14.242;2022-12-18T01:28:46;99883.00;;;-6.92;100.00
39897;BME280;25567;48.276;14.242;2022-12-18T01:31:16;99877.50;;;-6.70;100.00
39897;BME280;25567;48.276;14.242;2022-12-18T01:33:44;99883.94;;;-6.61;100.00
39897;BME280;25567;48.276;14.242;2022-12-18T01:36:15;99881.44;;;-6.79;100.00
39897;BME280;25567;48.276;14.242;2022-12-18T01:38:43;99885.59;;;-6.76;100.00
39897;BME280;25567;48.276;14.242;2022-12-18T01:41:09;99883.06;;;-6.78;100.00
39897;BME280;25567;48.276;14.242;2022-12-18T01:43:41;99882.59;;;-6.68;100.00
39897;BME280;25567;48.276;14.242;2022-12-18T01:46:08;99878.50;;;-6.73;100.00
39897;BME280;25567;48.276;14.242;2022-12-18T01:48:36;99884.00;;;-6.79;100.00
39897;BME280;25567;48.276;14.242;2022-12-18T01:51:04;99889.41;;;-6.83;100.00
39897;BME280;25567;48.276;14.242;2022-12-18T01:53:32;99885.00;;;-6.65;100.00
39897;BME280;25567;48.276;14.242;2022-12-18T01:55:59;99888.75;;;-6.71;100.00
39897;BME280;25567;48.276;14.242;2022-12-18T01:58:32;99887.75;;;-6.68;100.00
39897;BME280;25567;48.276;14.242;2022-12-18T02:01:02;99879.09;;;-6.67;100.00
39897;BME280;25567;48.276;14.242;2022-12-18T02:03:28;99872.03;;;-6.64;100.00
39897;BME280;25567;48.276;14.242;2022-12-18T02:05:59;99869.84;;;-6.56;100.00
39897;BME280;25567;48.276;14.242;2022-12-18T02:08:32;99873.00;;;-6.34;100.00
39897;BME280;25567;48.276;14.242;2022-12-18T02:19:16;99876.41;;;-6.34;100.00
39897;BME280;25567;48.276;14.242;2022-12-18T02:21:57;99874.31;;;-6.27;100.00
39897;BME280;25567;48.276;14.242;2022-12-18T02:24:50;99875.06;;;-6.25;100.00
39897;BME280;25567;48.276;14.242;2022-12-18T02:27:20;99880.22;;;-6.25;100.00
39897;BME280;25567;48.276;14.242;2022-12-18T02:29:50;99883.38;;;-6.20;100.00
39897;BME280;25567;48.276;14.242;2022-12-18T02:32:27;99883.06;;;-6.14;100.00
39897;BME280;25567;48.276;14.242;2022-12-18T02:34:56;99878.63;;;-6.12;100.00
39897;BME280;25567;48.276;14.242;2022-12-18T02:37:24;99875.31;;;-6.14;100.00
39897;BME280;25567;48.276;14.242;2022-12-18T02:39:56;99875.59;;;-6.04;100.00
39897;BME280;25567;48.276;14.242;2022-12-18T02:42:24;99882.94;;;-5.82;100.00
39897;BME280;25567;48.276;14.242;2022-12-18T02:44:51;99889.78;;;-5.66;100.00
39897;BME280;25567;48.276;14.242;2022-12-18T02:47:25;99883.75;;;-5.81;100.00
39897;BME280;25567;48.276;14.242;2022-12-18T02:50:18;99893.22;;;-5.66;100.00
39897;BME280;25567;48.276;14.242;2022-12-18T02:53:12;99896.06;;;-5.71;100.00
39897;BME280;25567;48.276;14.242;2022-12-18T02:56:03;99892.50;;;-5.84;100.00
39897;BME280;25567;48.276;14.242;2022-12-18T02:58:46;99893.94;;;-5.64;100.00
39897;BME280;25567;48.276;14.242;2022-12-18T03:01:21;99897.19;;;-5.60;100.00
39897;BME280;25567;48.276;14.242;2022-12-18T03:03:56;99886.47;;;-5.68;100.00
39897;BME280;25567;48.276;14.242;2022-12-18T03:06:31;99891.34;;;-5.64;100.00
39897;BME280;25567;48.276;14.242;2022-12-18T03:09:03;99892.91;;;-5.76;100.00
39897;BME280;25567;48.276;14.242;2022-12-18T03:11:34;99882.97;;;-5.53;100.00
39897;BME280;25567;48.276;14.242;2022-12-18T03:14:20;99879.91;;;-5.60;100.00
39897;BME280;25567;48.276;14.242;2022-12-18T03:16:50;99890.19;;;-5.58;100.00
39897;BME280;25567;48.276;14.242;2022-12-18T03:19:22;99895.63;;;-5.63;100.00
39897;BME280;25567;48.276;14.242;2022-12-18T03:21:54;99892.84;;;-5.60;100.00
39897;BME280;25567;48.276;14.242;2022-12-18T03:24:24;99881.88;;;-5.63;100.00
39897;BME280;25567;48.276;14.242;2022-12-18T03:26:55;99873.34;;;-5.65;100.00
39897;BME280;25567;48.276;14.242;2022-12-18T03:29:29;99879.22;;;-5.47;100.00
39897;BME280;25567;48.276;14.242;2022-12-18T03:32:05;99872.00;;;-5.42;100.00
39897;BME280;25567;48.276;14.242;2022-12-18T03:34:36;99880.69;;;-5.43;100.00
39897;BME280;25567;48.276;14.242;2022-12-18T03:37:05;99884.53;;;-5.65;100.00
39897;BME280;25567;48.276;14.242;2022-12-18T03:39:33;99890.59;;;-5.80;100.00
39897;BME280;25567;48.276;14.242;2022-12-18T03:44:40;99901.59;;;-5.77;100.00
39897;BME280;25567;48.276;14.242;2022-12-18T03:47:15;99901.66;;;-5.78;100.00
39897;BME280;25567;48.276;14.242;2022-12-18T03:49:48;99909.78;;;-5.84;100.00
39897;BME280;25567;48.276;14.242;2022-12-18T03:52:31;99911.88;;;-5.91;100.00
39897;BME280;25567;48.276;14.242;2022-12-18T03:55:06;99908.44;;;-5.92;100.00
39897;BME280;25567;48.276;14.242;2022-12-18T03:57:37;99909.41;;;-5.93;100.00
39897;BME280;25567;48.276;14.242;2022-12-18T04:00:08;99912.63;;;-5.89;100.00
39897;BME280;25567;48.276;14.242;2022-12-18T04:02:38;99920.09;;;-5.99;100.00
39897;BME280;25567;48.276;14.242;2022-12-18T04:05:07;99922.88;;;-6.18;100.00
39897;BME280;25567;48.276;14.242;2022-12-18T04:07:36;99922.47;;;-6.42;100.00
39897;BME280;25567;48.276;14.242;2022-12-18T04:10:06;99922.56;;;-6.44;100.00
39897;BME280;25567;48.276;14.242;2022-12-18T04:12:33;99915.00;;;-6.47;100.00
39897;BME280;25567;48.276;14.242;2022-12-18T04:14:59;99922.88;;;-6.50;100.00
39897;BME280;25567;48.276;14.242;2022-12-18T04:17:26;99925.72;;;-6.55;100.00
39897;BME280;25567;48.276;14.242;2022-12-18T04:19:56;99930.13;;;-6.41;100.00
39897;BME280;25567;48.276;14.242;2022-12-18T04:22:22;99924.63;;;-6.34;100.00
39897;BME280;25567;48.276;14.242;2022-12-18T04:24:49;99927.03;;;-6.31;100.00
39897;BME280;25567;48.276;14.242;2022-12-18T04:27:16;99921.81;;;-6.30;100.00
39897;BME280;25567;48.276;14.242;2022-12-18T04:29:42;99925.91;;;-6.26;100.00
39897;BME280;25567;48.276;14.242;2022-12-18T04:32:09;99913.38;;;-6.17;100.00
39897;BME280;25567;48.276;14.242;2022-12-18T04:34:36;99923.69;;;-6.01;100.00
39897;BME280;25567;48.276;14.242;2022-12-18T04:37:02;99924.13;;;-6.09;100.00
39897;BME280;25567;48.276;14.242;2022-12-18T04:39:29;99925.78;;;-6.08;100.00
39897;BME280;25567;48.276;14.242;2022-12-18T04:41:56;99929.88;;;-6.20;100.00
39897;BME280;25567;48.276;14.242;2022-12-18T04:44:22;99935.38;;;-6.26;100.00
39897;BME280;25567;48.276;14.242;2022-12-18T04:46:49;99935.88;;;-6.35;100.00
39897;BME280;25567;48.276;14.242;2022-12-18T04:49:16;99946.56;;;-6.42;100.00
39897;BME280;25567;48.276;14.242;2022-12-18T04:51:42;99946.28;;;-6.53;100.00
39897;BME280;25567;48.276;14.242;2022-12-18T04:54:09;99940.53;;;-6.58;100.00
39897;BME280;25567;48.276;14.242;2022-12-18T04:56:36;99946.69;;;-6.61;100.00
39897;BME280;25567;48.276;14.242;2022-12-18T04:59:02;99953.03;;;-6.66;100.00
39897;BME280;25567;48.276;14.242;2022-12-18T05:01:29;99948.75;;;-6.83;100.00
39897;BME280;25567;48.276;14.242;2022-12-18T05:04:01;99945.50;;;-6.87;100.00
39897;BME280;25567;48.276;14.242;2022-12-18T05:06:28;99948.66;;;-6.82;100.00
39897;BME280;25567;48.276;14.242;2022-12-18T05:08:55;99952.84;;;-6.79;100.00
39897;BME280;25567;48.276;14.242;2022-12-18T05:11:21;99949.25;;;-6.77;100.00
39897;BME280;25567;48.276;14.242;2022-12-18T05:13:48;99953.50;;;-6.92;100.00
39897;BME280;25567;48.276;14.242;2022-12-18T05:16:15;99947.53;;;-7.10;100.00
39897;BME280;25567;48.276;14.242;2022-12-18T05:18:42;99953.47;;;-7.43;97.26
39897;BME280;25567;48.276;14.242;2022-12-18T05:21:08;99952.72;;;-7.80;94.56
39897;BME280;25567;48.276;14.242;2022-12-18T05:23:35;99955.72;;;-8.07;95.07
39897;BME280;25567;48.276;14.242;2022-12-18T05:26:04;99951.50;;;-8.27;95.65
39897;BME280;25567;48.276;14.242;2022-12-18T05:28:32;99957.06;;;-8.53;95.75
39897;BME280;25567;48.276;14.242;2022-12-18T05:31:01;99957.19;;;-8.76;95.47
39897;BME280;25567;48.276;14.242;2022-12-18T05:33:31;99961.84;;;-8.84;95.69
39897;BME280;25567;48.276;14.242;2022-12-18T05:36:00;99967.28;;;-9.11;95.18
39897;BME280;25567;48.276;14.242;2022-12-18T05:38:28;99972.09;;;-9.44;94.14
39897;BME280;25567;48.276;14.242;2022-12-18T05:40:56;99982.03;;;-9.78;93.50
39897;BME280;25567;48.276;14.242;2022-12-18T05:43:24;99970.06;;;-9.36;97.27
39897;BME280;25567;48.276;14.242;2022-12-18T05:45:51;99969.31;;;-8.98;99.81
39897;BME280;25567;48.276;14.242;2022-12-18T05:48:19;99970.44;;;-9.04;100.00
39897;BME280;25567;48.276;14.242;2022-12-18T05:50:48;99970.72;;;-9.31;98.28
39897;BME280;25567;48.276;14.242;2022-12-18T05:53:17;99979.09;;;-9.27;97.32
39897;BME280;25567;48.276;14.242;2022-12-18T05:55:44;99975.38;;;-9.20;95.65
39897;BME280;25567;48.276;14.242;2022-12-18T05:58:12;99970.34;;;-9.23;94.72
39897;BME280;25567;48.276;14.242;2022-12-18T06:00:41;99974.59;;;-9.22;94.59
39897;BME280;25567;48.276;14.242;2022-12-18T06:03:09;99982.25;;;-9.20;93.77
39897;BME280;25567;48.276;14.242;2022-12-18T06:05:38;99991.06;;;-9.26;94.17
39897;BME280;25567;48.276;14.242;2022-12-18T06:08:05;99996.19;;;-9.26;94.22
39897;BME280;25567;48.276;14.242;2022-12-18T06:10:32;99990.69;;;-9.37;93.70
39897;BME280;25567;48.276;14.242;2022-12-18T06:12:59;100000.19;;;-9.40;92.68
39897;BME280;25567;48.276;14.242;2022-12-18T06:15:26;100005.84;;;-9.52;93.34
39897;BME280;25567;48.276;14.242;2022-12-18T06:17:53;100010.56;;;-9.63;93.00
39897;BME280;25567;48.276;14.242;2022-12-18T06:20:20;100016.06;;;-9.73;92.70
39897;BME280;25567;48.276;14.242;2022-12-18T06:22:46;100013.69;;;-9.77;92.17
39897;BME280;25567;48.276;14.242;2022-12-18T06:25:13;100008.13;;;-9.66;91.88
39897;BME280;25567;48.276;14.242;2022-12-18T06:27:40;100003.81;;;-9.66;92.20
39897;BME280;25567;48.276;14.242;2022-12-18T06:30:09;100016.94;;;-9.74;91.56
39897;BME280;25567;48.276;14.242;2022-12-18T06:32:36;100018.16;;;-9.82;91.69
39897;BME280;25567;48.276;14.242;2022-12-18T06:35:03;100017.13;;;-10.00;90.81
39897;BME280;25567;48.276;14.242;2022-12-18T06:37:31;100013.03;;;-10.04;91.26
39897;BME280;25567;48.276;14.242;2022-12-18T06:39:58;100016.22;;;-10.22;91.07
39897;BME280;25567;48.276;14.242;2022-12-18T06:42:25;100022.09;;;-10.40;90.47
39897;BME280;25567;48.276;14.242;2022-12-18T06:44:51;100024.25;;;-10.53;90.62
39897;BME280;25567;48.276;14.242;2022-12-18T06:47:18;100025.09;;;-10.52;89.94
39897;BME280;25567;48.276;14.242;2022-12-18T06:49:45;100028.16;;;-10.43;90.26
39897;BME280;25567;48.276;14.242;2022-12-18T06:52:11;100040.03;;;-10.40;90.66
39897;BME280;25567;48.276;14.242;2022-12-18T06:54:38;100037.75;;;-10.48;90.32
39897;BME280;25567;48.276;14.242;2022-12-18T06:57:05;100043.66;;;-10.46;90.82
39897;BME280;25567;48.276;14.242;2022-12-18T06:59:32;100049.53;;;-10.42;90.91
39897;BME280;25567;48.276;14.242;2022-12-18T07:01:58;100054.19;;;-10.30;90.96
39897;BME280;25567;48.276;14.242;2022-12-18T07:04:28;100058.91;;;-10.19;92.60
39897;BME280;25567;48.276;14.242;2022-12-18T07:06:56;100061.47;;;-10.19;93.84
39897;BME280;25567;48.276;14.242;2022-12-18T07:09:24;100064.78;;;-10.15;94.62
39897;BME280;25567;48.276;14.242;2022-12-18T07:11:52;100066.44;;;-10.36;94.24
39897;BME280;25567;48.276;14.242;2022-12-18T07:14:18;100065.25;;;-10.29;94.66
39897;BME280;25567;48.276;14.242;2022-12-18T07:16:47;100070.53;;;-10.32;95.31
39897;BME280;25567;48.276;14.242;2022-12-18T07:19:14;100076.75;;;-10.16;96.01
39897;BME280;25567;48.276;14.242;2022-12-18T07:21:40;100076.47;;;-10.32;95.29
39897;BME280;25567;48.276;14.242;2022-12-18T07:24:07;100071.00;;;-10.23;95.25
39897;BME280;25567;48.276;14.242;2022-12-18T07:26:34;100069.44;;;-10.27;95.22
39897;BME280;25567;48.276;14.242;2022-12-18T07:29:00;100070.19;;;-10.23;95.35
39897;BME280;25567;48.276;14.242;2022-12-18T07:31:27;100072.78;;;-10.01;95.74
39897;BME280;25567;48.276;14.242;2022-12-18T07:33:54;100072.50;;;-9.93;96.33
39897;BME280;25567;48.276;14.242;2022-12-18T07:36:21;100073.00;;;-10.07;95.26
39897;BME280;25567;48.276;14.242;2022-12-18T07:38:48;100071.91;;;-9.78;94.95
39897;BME280;25567;48.276;14.242;2022-12-18T07:41:16;100074.06;;;-9.45;95.39
39897;BME280;25567;48.276;14.242;2022-12-18T07:43:43;100071.13;;;-9.35;95.32
39897;BME280;25567;48.276;14.242;2022-12-18T07:46:11;100075.50;;;-9.37;94.86
39897;BME280;25567;48.276;14.242;2022-12-18T07:48:41;100068.03;;;-9.23;95.16
39897;BME280;25567;48.276;14.242;2022-12-18T07:51:10;100072.75;;;-9.12;94.02
39897;BME280;25567;48.276;14.242;2022-12-18T07:53:37;100072.75;;;-8.92;94.04
39897;BME280;25567;48.276;14.242;2022-12-18T07:56:10;100077.53;;;-8.63;92.96
39897;BME280;25567;48.276;14.242;2022-12-18T07:58:53;100080.13;;;-8.44;92.77
39897;BME280;25567;48.276;14.242;2022-12-18T08:01:20;100093.09;;;-8.27;92.48
39897;BME280;25567;48.276;14.242;2022-12-18T08:03:47;100088.94;;;-8.10;92.31
39897;BME280;25567;48.276;14.242;2022-12-18T08:06:15;100088.25;;;-8.14;91.89
39897;BME280;25567;48.276;14.242;2022-12-18T08:08:42;100087.53;;;-7.98;92.36
39897;BME280;25567;48.276;14.242;2022-12-18T08:11:08;100082.16;;;-7.75;92.76
39897;BME280;25567;48.276;14.242;2022-12-18T08:13:35;100086.75;;;-7.62;92.32
39897;BME280;25567;48.276;14.242;2022-12-18T08:16:05;100083.47;;;-7.66;92.02
39897;BME280;25567;48.276;14.242;2022-12-18T08:18:34;100092.72;;;-7.25;91.87
39897;BME280;25567;48.276;14.242;2022-12-18T08:21:09;100093.19;;;-6.99;90.93
39897;BME280;25567;48.276;14.242;2022-12-18T08:23:36;100094.25;;;-7.04;90.16
39897;BME280;25567;48.276;14.242;2022-12-18T08:26:08;100094.41;;;-6.89;90.15
39897;BME280;25567;48.276;14.242;2022-12-18T08:28:35;100095.75;;;-6.99;89.99
39897;BME280;25567;48.276;14.242;2022-12-18T08:31:02;100092.72;;;-7.08;89.37
39897;BME280;25567;48.276;14.242;2022-12-18T08:33:29;100099.66;;;-6.91;90.53
39897;BME280;25567;48.276;14.242;2022-12-18T08:35:55;100089.91;;;-6.68;91.37
39897;BME280;25567;48.276;14.242;2022-12-18T08:38:22;100095.59;;;-6.96;89.73
39897;BME280;25567;48.276;14.242;2022-12-18T08:40:49;100083.13;;;-6.53;90.80
39897;BME280;25567;48.276;14.242;2022-12-18T08:43:16;100093.50;;;-6.37;89.95
39897;BME280;25567;48.276;14.242;2022-12-18T08:45:58;100101.84;;;-5.84;91.13
39897;BME280;25567;48.276;14.242;2022-12-18T08:48:25;100098.19;;;-5.64;90.73
39897;BME280;25567;48.276;14.242;2022-12-18T08:50:56;100101.59;;;-5.31;90.88
39897;BME280;25567;48.276;14.242;2022-12-18T08:53:23;100092.88;;;-5.14;90.45
39897;BME280;25567;48.276;14.242;2022-12-18T08:55:50;100092.28;;;-5.20;90.29
39897;BME280;25567;48.276;14.242;2022-12-18T08:58:17;100083.47;;;-5.31;90.04
39897;BME280;25567;48.276;14.242;2022-12-18T09:00:44;100092.78;;;-5.13;89.53
39897;BME280;25567;48.276;14.242;2022-12-18T09:03:14;100080.56;;;-5.11;88.94
39897;BME280;25567;48.276;14.242;2022-12-18T09:05:42;100085.97;;;-4.99;88.71
39897;BME280;25567;48.276;14.242;2022-12-18T09:08:09;100090.19;;;-4.82;88.81
39897;BME280;25567;48.276;14.242;2022-12-18T09:10:41;100088.19;;;-5.08;88.04
39897;BME280;25567;48.276;14.242;2022-12-18T09:13:10;100089.19;;;-4.37;88.14
39897;BME280;25567;48.276;14.242;2022-12-18T09:15:47;100078.75;;;-4.49;88.10
39897;BME280;25567;48.276;14.242;2022-12-18T09:18:15;100082.44;;;-4.39;87.53
39897;BME280;25567;48.276;14.242;2022-12-18T09:20:43;100080.84;;;-4.42;88.14
39897;BME280;25567;48.276;14.242;2022-12-18T09:23:10;100070.69;;;-4.59;87.66
39897;BME280;25567;48.276;14.242;2022-12-18T09:25:37;100071.06;;;-4.65;88.48
39897;BME280;25567;48.276;14.242;2022-12-18T09:28:10;100072.72;;;-4.50;88.81
39897;BME280;25567;48.276;14.242;2022-12-18T09:30:39;100069.41;;;-4.38;89.06
39897;BME280;25567;48.276;14.242;2022-12-18T09:33:06;100081.31;;;-4.35;89.09
39897;BME280;25567;48.276;14.242;2022-12-18T09:35:36;100083.34;;;-4.11;88.33
39897;BME280;25567;48.276;14.242;2022-12-18T09:38:03;100079.66;;;-3.65;87.53
39897;BME280;25567;48.276;14.242;2022-12-18T09:40:35;100079.41;;;-3.08;85.88
39897;BME280;25567;48.276;14.242;2022-12-18T09:43:04;100080.19;;;-2.28;80.68
39897;BME280;25567;48.276;14.242;2022-12-18T09:45:41;100078.63;;;-1.81;78.05
39897;BME280;25567;48.276;14.242;2022-12-18T09:48:18;100084.22;;;-1.74;75.70
39897;BME280;25567;48.276;14.242;2022-12-18T09:50:47;100068.63;;;-1.50;75.79
39897;BME280;25567;48.276;14.242;2022-12-18T09:53:19;100073.47;;;-1.21;74.71
39897;BME280;25567;48.276;14.242;2022-12-18T09:55:48;100066.97;;;-0.91;72.77
39897;BME280;25567;48.276;14.242;2022-12-18T09:58:25;100061.69;;;-0.56;70.50
39897;BME280;25567;48.276;14.242;2022-12-18T10:00:54;100062.50;;;-0.44;70.15
39897;BME280;25567;48.276;14.242;2022-12-18T10:03:21;100061.09;;;-0.37;70.85
39897;BME280;25567;48.276;14.242;2022-12-18T10:11:40;100055.25;;;0.16;67.37
39897;BME280;25567;48.276;14.242;2022-12-18T10:14:26;100062.88;;;-0.37;67.20
39897;BME280;25567;48.276;14.242;2022-12-18T10:19:35;100047.53;;;0.04;66.49
39897;BME280;25567;48.276;14.242;2022-12-18T10:22:21;100048.81;;;0.32;66.63
39897;BME280;25567;48.276;14.242;2022-12-18T10:27:26;100049.66;;;0.86;66.31
39897;BME280;25567;48.276;14.242;2022-12-18T10:29:54;100055.19;;;0.93;64.41
39897;BME280;25567;48.276;14.242;2022-12-18T10:32:25;100044.31;;;0.88;64.17
39897;BME280;25567;48.276;14.242;2022-12-18T10:34:55;100043.28;;;1.21;62.66
39897;BME280;25567;48.276;14.242;2022-12-18T10:37:29;100049.47;;;0.99;62.79
39897;BME280;25567;48.276;14.242;2022-12-18T10:40:12;100030.09;;;1.94;61.00
39897;BME280;25567;48.276;14.242;2022-12-18T10:43:03;100021.06;;;2.18;57.91
39897;BME280;25567;48.276;14.242;2022-12-18T10:45:30;100020.41;;;1.75;60.03
39897;BME280;25567;48.276;14.242;2022-12-18T10:47:57;100020.13;;;1.78;58.06
39897;BME280;25567;48.276;14.242;2022-12-18T10:50:29;100005.06;;;1.30;58.64
39897;BME280;25567;48.276;14.242;2022-12-18T10:53:20;99991.59;;;1.04;60.23
39897;BME280;25567;48.276;14.242;2022-12-18T10:55:49;99995.13;;;0.72;61.98
39897;BME280;25567;48.276;14.242;2022-12-18T10:58:28;99991.34;;;0.11;65.70
39897;BME280;25567;48.276;14.242;2022-12-18T11:01:13;99990.31;;;0.35;66.10
39897;BME280;25567;48.276;14.242;2022-12-18T11:03:43;99979.09;;;-0.32;69.63
39897;BME280;25567;48.276;14.242;2022-12-18T11:06:13;99989.22;;;-0.07;71.07
39897;BME280;25567;48.276;14.242;2022-12-18T11:08:42;99988.28;;;0.59;65.76
39897;BME280;25567;48.276;14.242;2022-12-18T11:11:25;99983.25;;;0.68;64.46
39897;BME280;25567;48.276;14.242;2022-12-18T11:16:42;99972.53;;;0.28;66.53
39897;BME280;25567;48.276;14.242;2022-12-18T11:19:33;99976.31;;;-0.08;67.58
39897;BME280;25567;48.276;14.242;2022-12-18T11:22:01;99986.44;;;-0.38;69.12
39897;BME280;25567;48.276;14.242;2022-12-18T11:24:31;99990.56;;;-0.35;70.00
39897;BME280;25567;48.276;14.242;2022-12-18T11:27:01;99980.63;;;-0.64;70.06
39897;BME280;25567;48.276;14.242;2022-12-18T11:29:33;99979.66;;;-0.97;71.91
39897;BME280;25567;48.276;14.242;2022-12-18T11:32:22;99976.78;;;-1.28;73.10
39897;BME280;25567;48.276;14.242;2022-12-18T11:34:58;99977.69;;;-1.40;74.42
39897;BME280;25567;48.276;14.242;2022-12-18T11:37:26;99979.88;;;-1.58;74.95
39897;BME280;25567;48.276;14.242;2022-12-18T11:39:59;99976.41;;;-1.70;76.41
39897;BME280;25567;48.276;14.242;2022-12-18T11:42:48;99968.72;;;-1.96;77.27
39897;BME280;25567;48.276;14.242;2022-12-18T11:50:52;99968.50;;;-2.17;80.42
39897;BME280;25567;48.276;14.242;2022-12-18T11:53:20;99970.25;;;-2.18;80.83
39897;BME280;25567;48.276;14.242;2022-12-18T11:56:12;99965.47;;;-2.11;82.16
39897;BME280;25567;48.276;14.242;2022-12-18T11:59:01;99960.31;;;-1.99;80.92
39897;BME280;25567;48.276;14.242;2022-12-18T12:01:50;99954.50;;;-2.03;82.65
39897;BME280;25567;48.276;14.242;2022-12-18T12:04:43;99953.72;;;-2.16;84.64
39897;BME280;25567;48.276;14.242;2022-12-18T12:10:00;99945.63;;;-2.01;82.82
39897;BME280;25567;48.276;14.242;2022-12-18T12:16:02;99937.03;;;-2.01;83.90
39897;BME280;25567;48.276;14.242;2022-12-18T12:18:53;99944.94;;;-2.03;84.52
39897;BME280;25567;48.276;14.242;2022-12-18T12:21:37;99939.72;;;-2.03;83.99
39897;BME280;25567;48.276;14.242;2022-12-18T12:32:42;99940.44;;;-2.01;85.39
39897;BME280;25567;48.276;14.242;2022-12-18T12:35:32;99941.84;;;-2.08;86.59
39897;BME280;25567;48.276;14.242;2022-12-18T12:38:20;99944.47;;;-1.96;85.86
39897;BME280;25567;48.276;14.242;2022-12-18T12:40:52;99957.03;;;-1.90;84.48
39897;BME280;25567;48.276;14.242;2022-12-18T12:43:39;99958.63;;;-2.01;85.71
39897;BME280;25567;48.276;14.242;2022-12-18T12:46:17;99957.69;;;-1.99;86.01
39897;BME280;25567;48.276;14.242;2022-12-18T12:51:23;99959.38;;;-1.98;87.58
39897;BME280;25567;48.276;14.242;2022-12-18T12:53:52;99958.09;;;-1.93;85.07
39897;BME280;25567;48.276;14.242;2022-12-18T12:56:21;99960.00;;;-1.95;86.89
39897;BME280;25567;48.276;14.242;2022-12-18T12:59:13;99964.81;;;-2.02;86.56
39897;BME280;25567;48.276;14.242;2022-12-18T13:01:53;99964.69;;;-2.00;86.10
39897;BME280;25567;48.276;14.242;2022-12-18T13:07:26;99975.38;;;-1.92;84.96
39897;BME280;25567;48.276;14.242;2022-12-18T13:10:22;99979.00;;;-1.94;84.42
39897;BME280;25567;48.276;14.242;2022-12-18T13:13:03;99984.13;;;-2.06;84.84
39897;BME280;25567;48.276;14.242;2022-12-18T13:15:34;99981.59;;;-2.19;85.46
39897;BME280;25567;48.276;14.242;2022-12-18T13:18:13;99987.59;;;-2.42;86.25
39897;BME280;25567;48.276;14.242;2022-12-18T13:20:44;99987.19;;;-2.49;87.13
39897;BME280;25567;48.276;14.242;2022-12-18T13:23:33;99984.47;;;-2.47;87.44
39897;BME280;25567;48.276;14.242;2022-12-18T13:28:56;99994.94;;;-2.36;87.90
39897;BME280;25567;48.276;14.242;2022-12-18T13:34:21;99995.41;;;-2.55;88.05
39897;BME280;25567;48.276;14.242;2022-12-18T13:36:55;99994.69;;;-2.57;88.44
39897;BME280;25567;48.276;14.242;2022-12-18T13:39:30;99999.31;;;-2.49;88.56
39897;BME280;25567;48.276;14.242;2022-12-18T13:48:15;99991.50;;;-1.75;88.11
39897;BME280;25567;48.276;14.242;2022-12-18T13:50:42;99995.81;;;-1.39;86.48
39897;BME280;25567;48.276;14.242;2022-12-18T13:53:22;99986.97;;;-1.60;84.87
39897;BME280;25567;48.276;14.242;2022-12-18T13:55:51;99981.19;;;-1.88;84.85
39897;BME280;25567;48.276;14.242;2022-12-18T13:58:18;99980.56;;;-2.16;85.90
39897;BME280;25567;48.276;14.242;2022-12-18T14:00:45;99974.75;;;-2.32;87.44
39897;BME280;25567;48.276;14.242;2022-12-18T14:03:28;99975.00;;;-2.48;87.56
39897;BME280;25567;48.276;14.242;2022-12-18T14:06:00;99979.94;;;-2.70;89.16